createdAt,value
2022-12-06T00:00:23.740Z,4.00
2022-12-06T00:01:16.042Z,4.20
2022-12-06T00:02:16.293Z,3.70
2022-12-06T00:03:17.092Z,3.70
2022-12-06T00:04:15.982Z,3.60
2022-12-06T00:05:15.968Z,4.10
2022-12-06T00:06:15.971Z,3.70
2022-12-06T00:07:15.946Z,3.60
2022-12-06T00:08:16.045Z,3.50
2022-12-06T00:09:15.970Z,4.00
2022-12-06T00:10:15.940Z,3.90
2022-12-06T00:11:15.920Z,3.70
2022-12-06T00:12:15.906Z,3.60
2022-12-06T00:13:15.901Z,3.90
2022-12-06T00:14:15.928Z,3.90
2022-12-06T00:15:15.880Z,3.60
2022-12-06T00:16:15.924Z,3.70
2022-12-06T00:17:15.854Z,3.30
2022-12-06T00:18:15.848Z,3.50
2022-12-06T00:19:15.856Z,3.30
2022-12-06T00:20:15.826Z,3.90
2022-12-06T00:22:29.990Z,3.90
2022-12-06T00:23:31.718Z,3.90
2022-12-06T00:24:29.746Z,3.50
2022-12-06T00:25:29.794Z,4.20
2022-12-06T00:26:29.689Z,3.90
2022-12-06T00:27:29.751Z,3.60
2022-12-06T00:28:29.813Z,4.40
2022-12-06T00:29:29.850Z,3.90
2022-12-06T00:30:29.950Z,3.90
2022-12-06T00:31:30.338Z,4.10
2022-12-06T00:32:29.965Z,3.50
2022-12-06T00:33:29.600Z,3.30
2022-12-06T00:34:29.602Z,4.20
2022-12-06T00:35:29.634Z,3.80
2022-12-06T00:36:29.612Z,3.80
2022-12-06T00:37:29.633Z,3.70
2022-12-06T00:38:29.622Z,4.50
2022-12-06T00:39:29.629Z,3.80
2022-12-06T00:40:29.481Z,3.30
2022-12-06T00:41:29.482Z,3.50
2022-12-06T00:42:29.538Z,3.80
2022-12-06T00:43:29.547Z,4.10
2022-12-06T00:44:29.763Z,4.20
2022-12-06T00:45:29.615Z,3.90
2022-12-06T00:46:29.845Z,4.00
2022-12-06T00:47:29.492Z,4.20
2022-12-06T00:48:29.517Z,3.80
2022-12-06T00:49:29.688Z,4.20
2022-12-06T00:50:29.481Z,4.10
2022-12-06T00:51:30.189Z,3.70
2022-12-06T00:52:29.699Z,4.50
2022-12-06T00:53:29.419Z,4.10
2022-12-06T00:54:29.798Z,4.00
2022-12-06T00:55:29.501Z,4.50
2022-12-06T00:56:34.315Z,3.70
2022-12-06T00:57:29.390Z,4.10
2022-12-06T00:58:32.242Z,4.30
2022-12-06T01:00:41.151Z,4.40
2022-12-06T01:01:42.239Z,5.10
2022-12-06T01:02:42.247Z,5.10
2022-12-06T01:03:42.207Z,4.50
2022-12-06T01:04:42.143Z,5.20
2022-12-06T01:05:42.157Z,5.20
2022-12-06T01:06:42.116Z,4.70
2022-12-06T01:07:42.758Z,4.70
2022-12-06T01:08:42.085Z,5.40
2022-12-06T01:09:42.092Z,5.30
2022-12-06T01:10:42.077Z,5.60
2022-12-06T01:11:42.042Z,4.90
2022-12-06T01:12:42.141Z,4.60
2022-12-06T01:13:42.066Z,5.20
2022-12-06T01:14:42.051Z,4.30
2022-12-06T01:15:42.046Z,4.70
2022-12-06T01:16:42.047Z,4.60
2022-12-06T01:17:42.272Z,4.80
2022-12-06T01:18:42.050Z,4.60
2022-12-06T01:19:42.017Z,4.90
2022-12-06T01:20:42.011Z,5.20
2022-12-06T01:21:42.083Z,4.80
2022-12-06T01:22:42.024Z,5.10
2022-12-06T01:23:42.184Z,5.20
2022-12-06T01:24:41.955Z,4.80
2022-12-06T01:25:41.935Z,4.70
2022-12-06T01:26:41.935Z,5.00
2022-12-06T01:27:41.925Z,4.50
2022-12-06T01:28:41.956Z,5.10
2022-12-06T01:29:41.867Z,4.40
2022-12-06T01:30:41.933Z,4.30
2022-12-06T01:31:41.886Z,5.10
2022-12-06T01:32:41.917Z,5.20
2022-12-06T01:33:41.864Z,5.30
2022-12-06T01:34:41.884Z,5.20
2022-12-06T01:35:41.891Z,5.20
2022-12-06T01:36:41.868Z,5.00
2022-12-06T01:37:41.879Z,4.80
2022-12-06T01:38:41.845Z,4.80
2022-12-06T01:39:41.856Z,5.30
2022-12-06T01:40:41.832Z,4.70
2022-12-06T01:41:41.821Z,4.10
2022-12-06T01:42:41.831Z,3.80
2022-12-06T01:43:41.946Z,4.50
2022-12-06T01:44:41.865Z,4.50
2022-12-06T01:45:41.777Z,5.20
2022-12-06T01:46:41.896Z,5.20
2022-12-06T01:47:41.710Z,4.50
2022-12-06T01:48:41.849Z,4.50
2022-12-06T01:49:41.747Z,5.10
2022-12-06T01:50:41.840Z,4.80
2022-12-06T01:51:42.333Z,4.80
2022-12-06T01:52:42.074Z,5.40
2022-12-06T01:53:41.728Z,4.40
2022-12-06T01:54:41.774Z,4.90
2022-12-06T01:55:41.689Z,5.30
2022-12-06T01:56:41.719Z,4.30
2022-12-06T01:57:41.652Z,4.40
2022-12-06T01:58:41.651Z,5.30
2022-12-06T01:59:41.765Z,4.70
2022-12-06T02:00:41.659Z,4.40
2022-12-06T02:01:41.737Z,4.30
2022-12-06T02:02:41.730Z,5.10
2022-12-06T02:03:41.567Z,4.70
2022-12-06T02:04:41.639Z,4.50
2022-12-06T02:05:41.693Z,4.70
2022-12-06T02:06:41.612Z,4.50
2022-12-06T02:07:41.525Z,4.90
2022-12-06T02:08:41.504Z,4.50
2022-12-06T02:09:41.548Z,5.00
2022-12-06T02:10:41.642Z,4.60
2022-12-06T02:11:41.561Z,3.90
2022-12-06T02:12:41.529Z,4.50
2022-12-06T02:13:41.547Z,4.10
2022-12-06T02:14:41.552Z,4.30
2022-12-06T02:15:41.543Z,5.00
2022-12-06T02:16:41.540Z,4.60
2022-12-06T02:17:41.451Z,4.70
2022-12-06T02:18:41.466Z,4.10
2022-12-06T02:19:41.525Z,4.10
2022-12-06T02:20:41.408Z,4.00
2022-12-06T02:21:41.439Z,4.90
2022-12-06T02:22:41.385Z,4.30
2022-12-06T02:23:41.396Z,3.70
2022-12-06T02:24:41.385Z,4.20
2022-12-06T02:25:43.573Z,4.60
2022-12-06T02:26:41.511Z,4.50
2022-12-06T02:27:41.369Z,4.00
2022-12-06T02:28:41.325Z,4.30
2022-12-06T02:29:41.440Z,4.50
2022-12-06T02:30:41.397Z,4.70
2022-12-06T02:31:41.291Z,4.00
2022-12-06T02:32:41.346Z,3.90
2022-12-06T02:33:41.391Z,4.40
2022-12-06T02:34:41.312Z,4.50
2022-12-06T02:35:41.305Z,4.60
2022-12-06T02:36:41.260Z,4.70
2022-12-06T02:37:41.337Z,3.70
2022-12-06T02:38:41.250Z,3.80
2022-12-06T02:39:41.210Z,4.30
2022-12-06T02:40:41.255Z,4.30
2022-12-06T02:41:41.220Z,4.10
2022-12-06T02:42:41.291Z,4.00
2022-12-06T02:43:41.234Z,4.70
2022-12-06T02:44:41.202Z,3.60
2022-12-06T02:45:41.252Z,4.10
2022-12-06T02:46:41.257Z,4.20
2022-12-06T02:47:41.195Z,4.80
2022-12-06T02:48:41.133Z,4.30
2022-12-06T02:49:41.174Z,4.80
2022-12-06T02:50:41.114Z,4.00
2022-12-06T02:51:41.143Z,4.90
2022-12-06T02:52:41.105Z,4.50
2022-12-06T02:53:41.117Z,5.30
2022-12-06T02:54:41.104Z,4.50
2022-12-06T02:55:41.071Z,4.60
2022-12-06T02:56:41.199Z,4.50
2022-12-06T02:57:41.115Z,4.80
2022-12-06T02:58:41.037Z,4.30
2022-12-06T02:59:41.139Z,4.70
2022-12-06T03:00:41.031Z,4.70
2022-12-06T03:01:41.096Z,4.80
2022-12-06T03:02:41.076Z,5.00
2022-12-06T03:03:41.277Z,4.60
2022-12-06T03:04:41.030Z,4.10
2022-12-06T03:05:41.050Z,3.80
2022-12-06T03:06:40.988Z,4.00
2022-12-06T03:07:41.233Z,3.30
2022-12-06T03:08:40.976Z,3.50
2022-12-06T03:09:40.999Z,3.70
2022-12-06T03:10:40.910Z,3.60
2022-12-06T03:11:40.913Z,4.00
2022-12-06T03:12:40.992Z,3.90
2022-12-06T03:13:41.053Z,3.60
2022-12-06T03:14:40.882Z,3.60
2022-12-06T03:15:40.967Z,3.90
2022-12-06T03:16:40.884Z,3.40
2022-12-06T03:17:40.841Z,3.60
2022-12-06T03:18:40.948Z,3.80
2022-12-06T03:19:40.833Z,3.10
2022-12-06T03:20:40.842Z,3.70
2022-12-06T03:21:40.880Z,4.10
2022-12-06T03:22:40.835Z,3.30
2022-12-06T03:23:40.782Z,3.20
2022-12-06T03:24:40.844Z,3.70
2022-12-06T03:25:40.768Z,3.30
2022-12-06T03:26:40.780Z,3.30
2022-12-06T03:27:40.778Z,3.60
2022-12-06T03:28:40.767Z,3.10
2022-12-06T03:29:40.771Z,3.50
2022-12-06T03:30:40.857Z,3.70
2022-12-06T03:31:40.801Z,3.60
2022-12-06T03:32:40.770Z,3.90
2022-12-06T03:33:40.769Z,3.80
2022-12-06T03:34:40.729Z,4.10
2022-12-06T03:35:40.680Z,3.40
2022-12-06T03:36:40.699Z,3.40
2022-12-06T03:37:40.672Z,3.60
2022-12-06T03:38:40.704Z,3.30
2022-12-06T03:39:40.689Z,3.80
2022-12-06T03:40:40.661Z,4.10
2022-12-06T03:41:40.616Z,3.40
2022-12-06T03:42:40.630Z,3.50
2022-12-06T03:43:40.621Z,3.70
2022-12-06T03:44:40.633Z,3.50
2022-12-06T03:45:40.630Z,3.70
2022-12-06T03:46:40.632Z,4.00
2022-12-06T03:47:40.563Z,3.50
2022-12-06T03:48:40.548Z,3.70
2022-12-06T03:49:40.637Z,3.60
2022-12-06T03:50:40.561Z,3.40
2022-12-06T03:51:40.666Z,4.00
2022-12-06T03:52:40.546Z,3.00
2022-12-06T03:53:40.566Z,4.10
2022-12-06T03:54:40.528Z,3.50
2022-12-06T03:55:40.577Z,3.80
2022-12-06T03:56:40.539Z,3.30
2022-12-06T03:57:40.616Z,3.50
2022-12-06T03:58:40.571Z,3.90
2022-12-06T03:59:40.498Z,4.10
2022-12-06T04:00:40.451Z,4.50
2022-12-06T04:01:40.489Z,3.40
2022-12-06T04:02:40.491Z,3.80
2022-12-06T04:03:40.526Z,3.70
2022-12-06T04:04:40.598Z,3.80
2022-12-06T04:05:40.412Z,3.30
2022-12-06T04:06:40.442Z,3.90
2022-12-06T04:07:40.442Z,3.50
2022-12-06T04:08:40.491Z,4.00
2022-12-06T04:09:40.418Z,4.40
2022-12-06T04:10:40.454Z,3.50
2022-12-06T04:11:40.351Z,3.60
2022-12-06T04:12:40.418Z,3.90
2022-12-06T04:13:40.328Z,3.50
2022-12-06T04:14:40.330Z,4.20
2022-12-06T04:15:40.485Z,3.40
2022-12-06T04:16:40.412Z,3.70
2022-12-06T04:17:40.383Z,3.90
2022-12-06T04:18:40.322Z,3.40
2022-12-06T04:19:40.314Z,4.20
2022-12-06T04:20:40.380Z,3.10
2022-12-06T04:21:40.304Z,4.20
2022-12-06T04:22:40.305Z,3.60
2022-12-06T04:23:40.246Z,3.50
2022-12-06T04:24:40.248Z,3.20
2022-12-06T04:25:40.248Z,3.90
2022-12-06T04:26:40.243Z,3.80
2022-12-06T04:27:40.215Z,3.10
2022-12-06T04:28:40.183Z,3.10
2022-12-06T04:29:40.213Z,2.90
2022-12-06T04:30:40.171Z,3.00
2022-12-06T04:31:40.293Z,3.10
2022-12-06T04:32:40.140Z,3.20
2022-12-06T04:33:40.216Z,2.70
2022-12-06T04:34:40.132Z,3.40
2022-12-06T04:35:40.158Z,3.10
2022-12-06T04:36:40.113Z,3.60
2022-12-06T04:37:40.129Z,3.80
2022-12-06T04:38:40.102Z,4.10
2022-12-06T04:39:40.086Z,4.50
2022-12-06T04:40:40.096Z,4.10
2022-12-06T04:41:40.075Z,4.50
2022-12-06T04:42:40.054Z,3.70
2022-12-06T04:43:40.138Z,3.60
2022-12-06T04:44:40.078Z,4.80
2022-12-06T04:45:40.133Z,5.20
2022-12-06T04:46:40.163Z,3.20
2022-12-06T04:47:40.065Z,3.70
2022-12-06T04:48:40.150Z,3.30
2022-12-06T04:49:40.022Z,3.20
2022-12-06T04:50:40.306Z,4.20
2022-12-06T04:51:40.054Z,3.70
2022-12-06T04:52:39.985Z,4.50
2022-12-06T04:53:39.995Z,3.80
2022-12-06T04:54:40.030Z,4.70
2022-12-06T04:55:39.963Z,3.80
2022-12-06T04:56:40.114Z,4.70
2022-12-06T04:57:39.986Z,4.00
2022-12-06T04:58:39.913Z,5.10
2022-12-06T04:59:39.967Z,3.50
2022-12-06T05:00:40.264Z,4.10
2022-12-06T05:01:39.983Z,3.10
2022-12-06T05:02:39.998Z,3.70
2022-12-06T05:03:44.189Z,3.60
2022-12-06T05:04:40.177Z,3.70
2022-12-06T05:05:40.007Z,3.90
2022-12-06T05:06:39.889Z,3.40
2022-12-06T05:07:39.878Z,4.40
2022-12-06T05:08:39.928Z,3.90
2022-12-06T05:09:39.803Z,4.00
2022-12-06T05:10:39.802Z,4.00
2022-12-06T05:11:39.771Z,3.90
2022-12-06T05:12:39.859Z,3.30
2022-12-06T05:13:39.772Z,3.20
2022-12-06T05:14:40.052Z,4.10
2022-12-06T05:15:40.050Z,3.50
2022-12-06T05:16:39.878Z,3.80
2022-12-06T05:17:40.060Z,3.80
2022-12-06T05:18:39.712Z,3.80
2022-12-06T05:19:40.026Z,4.20
2022-12-06T05:20:39.725Z,3.30
2022-12-06T05:21:39.741Z,4.00
2022-12-06T05:22:40.247Z,4.20
2022-12-06T05:23:39.745Z,3.70
2022-12-06T05:24:39.652Z,4.70
2022-12-06T05:25:39.694Z,4.60
2022-12-06T05:26:39.649Z,4.30
2022-12-06T05:27:39.720Z,4.00
2022-12-06T05:28:39.624Z,3.80
2022-12-06T05:29:39.707Z,4.00
2022-12-06T05:30:39.819Z,4.00
2022-12-06T05:31:39.885Z,4.10
2022-12-06T05:32:39.960Z,4.10
2022-12-06T05:33:39.712Z,4.10
2022-12-06T05:34:39.778Z,3.90
2022-12-06T05:35:39.631Z,3.60
2022-12-06T05:36:39.580Z,4.00
2022-12-06T05:37:39.579Z,3.60
2022-12-06T05:38:39.573Z,4.60
2022-12-06T05:39:39.931Z,4.30
2022-12-06T05:40:39.712Z,4.40
2022-12-06T05:41:39.700Z,3.30
2022-12-06T05:42:39.596Z,4.20
2022-12-06T05:43:39.732Z,3.80
2022-12-06T05:44:39.651Z,3.60
2022-12-06T05:45:39.532Z,3.90
2022-12-06T05:46:39.597Z,3.40
2022-12-06T05:47:39.483Z,4.20
2022-12-06T05:48:39.598Z,4.60
2022-12-06T05:49:39.446Z,3.70
2022-12-06T05:50:39.440Z,3.50
2022-12-06T05:51:39.493Z,3.70
2022-12-06T05:52:39.441Z,4.10
2022-12-06T05:53:39.433Z,4.10
2022-12-06T05:54:39.437Z,3.20
2022-12-06T05:55:39.501Z,3.30
2022-12-06T05:56:39.552Z,3.10
2022-12-06T05:57:45.470Z,3.30
2022-12-06T05:58:39.491Z,3.50
2022-12-06T05:59:39.478Z,3.40
2022-12-06T06:00:39.685Z,3.70
2022-12-06T06:01:39.705Z,3.80
2022-12-06T06:02:40.140Z,3.30
2022-12-06T06:03:45.497Z,2.80
2022-12-06T06:04:39.356Z,3.10
2022-12-06T06:05:39.613Z,3.70
2022-12-06T06:06:39.501Z,3.20
2022-12-06T06:07:39.463Z,3.00
2022-12-06T06:08:39.487Z,2.80
2022-12-06T06:09:39.286Z,3.40
2022-12-06T06:10:39.577Z,3.00
2022-12-06T06:11:39.422Z,2.60
2022-12-06T06:12:39.222Z,3.40
2022-12-06T06:13:39.358Z,3.30
2022-12-06T06:14:39.510Z,3.20
2022-12-06T06:15:39.273Z,2.80
2022-12-06T06:16:39.331Z,4.20
2022-12-06T06:17:39.314Z,3.50
2022-12-06T06:18:39.394Z,4.20
2022-12-06T06:19:39.165Z,3.60
2022-12-06T06:20:39.382Z,3.60
2022-12-06T06:21:39.178Z,2.90
2022-12-06T06:22:39.189Z,3.30
2022-12-06T06:23:39.194Z,3.80
2022-12-06T06:24:39.115Z,3.60
2022-12-06T06:25:39.273Z,3.50
2022-12-06T06:26:39.125Z,3.20
2022-12-06T06:27:39.294Z,3.30
2022-12-06T06:28:38.024Z,2.80
2022-12-06T06:29:43.703Z,3.10
2022-12-06T06:30:39.103Z,3.60
2022-12-06T06:31:39.039Z,2.70
2022-12-06T06:32:39.204Z,3.50
2022-12-06T06:33:39.479Z,3.00
2022-12-06T06:34:39.109Z,2.80
2022-12-06T06:35:39.024Z,3.10
2022-12-06T06:36:45.425Z,3.10
2022-12-06T06:37:38.985Z,3.30
2022-12-06T06:38:38.987Z,2.70
2022-12-06T06:39:39.080Z,3.10
2022-12-06T06:40:39.049Z,3.60
2022-12-06T06:41:39.855Z,2.90
2022-12-06T06:42:38.992Z,3.10
2022-12-06T06:43:38.909Z,2.70
2022-12-06T06:44:38.921Z,2.40
2022-12-06T06:45:38.895Z,2.80
2022-12-06T06:46:39.051Z,2.90
2022-12-06T06:47:38.882Z,3.00
2022-12-06T06:48:38.920Z,3.00
2022-12-06T06:49:38.895Z,3.10
2022-12-06T06:50:38.872Z,3.00
2022-12-06T06:51:38.901Z,3.20
2022-12-06T06:52:38.917Z,2.70
2022-12-06T06:53:38.730Z,2.90
2022-12-06T06:54:38.982Z,3.10
2022-12-06T06:55:38.765Z,2.80
2022-12-06T06:56:38.748Z,2.60
2022-12-06T06:57:38.734Z,3.20
2022-12-06T06:58:38.737Z,3.40
2022-12-06T06:59:38.705Z,2.80
2022-12-06T07:00:38.706Z,3.20
2022-12-06T07:01:38.782Z,2.80
2022-12-06T07:02:38.790Z,3.00
2022-12-06T07:03:38.689Z,2.90
2022-12-06T07:04:38.680Z,2.20
2022-12-06T07:05:38.710Z,2.60
2022-12-06T07:06:38.718Z,2.80
2022-12-06T07:07:38.682Z,3.10
2022-12-06T07:08:38.731Z,3.30
2022-12-06T07:09:38.608Z,2.80
2022-12-06T07:10:38.689Z,2.70
2022-12-06T07:11:38.609Z,2.80
2022-12-06T07:12:38.582Z,3.00
2022-12-06T07:13:38.584Z,3.20
2022-12-06T07:14:38.568Z,2.60
2022-12-06T07:15:38.696Z,3.00
2022-12-06T07:16:38.691Z,3.50
2022-12-06T07:17:38.562Z,2.50
2022-12-06T07:18:38.538Z,3.10
2022-12-06T07:19:38.522Z,3.50
2022-12-06T07:20:38.531Z,3.20
2022-12-06T07:21:38.559Z,3.50
2022-12-06T07:22:38.474Z,2.90
2022-12-06T07:23:38.552Z,2.70
2022-12-06T07:24:42.813Z,3.00
2022-12-06T07:25:38.671Z,3.30
2022-12-06T07:26:38.606Z,2.60
2022-12-06T07:27:38.441Z,3.20
2022-12-06T07:28:38.482Z,3.30
2022-12-06T07:29:38.443Z,3.60
2022-12-06T07:30:38.494Z,3.70
2022-12-06T07:31:38.475Z,3.20
2022-12-06T07:32:38.434Z,3.30
2022-12-06T07:33:38.396Z,3.70
2022-12-06T07:34:38.470Z,3.50
2022-12-06T07:36:37.334Z,4.00
2022-12-06T07:37:38.385Z,3.20
2022-12-06T07:38:38.381Z,4.00
2022-12-06T07:39:38.352Z,3.60
2022-12-06T07:41:03.440Z,3.90
2022-12-06T07:41:38.348Z,3.40
2022-12-06T07:42:38.389Z,3.50
2022-12-06T07:43:38.284Z,3.80
2022-12-06T07:44:38.303Z,3.80
2022-12-06T07:45:38.648Z,4.10
2022-12-06T07:46:38.322Z,3.60
2022-12-06T07:47:38.273Z,3.30
2022-12-06T07:48:38.229Z,3.40
2022-12-06T07:49:38.230Z,3.60
2022-12-06T07:50:38.228Z,3.30
2022-12-06T07:51:38.376Z,3.20
2022-12-06T07:52:38.220Z,4.00
2022-12-06T07:53:38.324Z,4.10
2022-12-06T07:54:38.269Z,4.00
2022-12-06T07:55:38.940Z,4.50
2022-12-06T07:56:38.189Z,3.90
2022-12-06T07:57:43.161Z,4.30
2022-12-06T07:58:38.199Z,3.90
2022-12-06T07:59:38.205Z,4.10
2022-12-06T08:00:38.241Z,4.30
2022-12-06T08:01:38.162Z,4.20
2022-12-06T08:02:38.116Z,3.80
2022-12-06T08:03:38.089Z,4.70
2022-12-06T08:04:38.159Z,4.60
2022-12-06T08:05:38.241Z,4.30
2022-12-06T08:06:38.130Z,4.50
2022-12-06T08:07:38.163Z,4.20
2022-12-06T08:08:38.192Z,4.30
2022-12-06T08:09:38.047Z,5.00
2022-12-06T08:10:38.078Z,4.00
2022-12-06T08:11:38.032Z,4.60
2022-12-06T08:12:38.002Z,4.30
2022-12-06T08:13:38.007Z,4.20
2022-12-06T08:14:38.021Z,4.20
2022-12-06T08:15:38.268Z,4.10
2022-12-06T08:16:37.984Z,4.30
2022-12-06T08:17:38.065Z,4.30
2022-12-06T08:18:37.957Z,4.60
2022-12-06T08:19:37.989Z,4.50
2022-12-06T08:20:38.035Z,4.20
2022-12-06T08:21:38.054Z,4.10
2022-12-06T08:22:38.069Z,4.80
2022-12-06T08:23:37.963Z,4.40
2022-12-06T08:24:37.977Z,4.50
2022-12-06T08:25:37.932Z,5.30
2022-12-06T08:26:37.892Z,4.80
2022-12-06T08:27:37.878Z,4.30
2022-12-06T08:28:37.912Z,4.40
2022-12-06T08:29:37.887Z,3.60
2022-12-06T08:30:37.886Z,3.90
2022-12-06T08:31:38.015Z,5.70
2022-12-06T08:32:37.845Z,5.20
2022-12-06T08:33:37.894Z,4.80
2022-12-06T08:34:37.834Z,5.00
2022-12-06T08:35:37.825Z,4.10
2022-12-06T08:36:37.881Z,5.50
2022-12-06T08:37:37.794Z,4.40
2022-12-06T08:38:37.822Z,4.50
2022-12-06T08:39:37.759Z,5.10
2022-12-06T08:40:37.769Z,4.70
2022-12-06T08:41:37.828Z,5.10
2022-12-06T08:42:37.796Z,4.80
2022-12-06T08:43:37.872Z,4.50
2022-12-06T08:44:37.786Z,3.80
2022-12-06T08:45:37.748Z,4.00
2022-12-06T08:46:37.834Z,4.70
2022-12-06T08:47:37.809Z,4.10
2022-12-06T08:48:42.798Z,4.20
2022-12-06T08:49:37.736Z,3.90
2022-12-06T08:50:37.650Z,4.60
2022-12-06T08:51:38.157Z,4.10
2022-12-06T08:52:37.941Z,4.20
2022-12-06T08:53:37.868Z,4.30
2022-12-06T08:54:37.746Z,4.50
2022-12-06T08:55:37.676Z,4.20
2022-12-06T08:56:37.681Z,4.40
2022-12-06T08:57:37.617Z,4.40
2022-12-06T08:58:37.600Z,4.20
2022-12-06T08:59:37.588Z,5.00
2022-12-06T09:00:37.567Z,4.30
2022-12-06T09:01:38.636Z,5.10
2022-12-06T09:02:37.625Z,4.70
2022-12-06T09:03:37.566Z,4.00
2022-12-06T09:04:37.857Z,3.80
2022-12-06T09:05:37.900Z,3.60
2022-12-06T09:06:38.791Z,4.50
2022-12-06T09:07:37.727Z,5.00
2022-12-06T09:08:37.894Z,4.50
2022-12-06T09:09:38.006Z,4.40
2022-12-06T09:10:38.229Z,4.60
2022-12-06T09:11:37.609Z,4.30
2022-12-06T09:12:37.516Z,4.10
2022-12-06T09:13:37.731Z,4.50
2022-12-06T09:14:37.612Z,4.40
2022-12-06T09:15:37.499Z,4.60
2022-12-06T09:16:37.409Z,4.60
2022-12-06T09:17:37.500Z,4.60
2022-12-06T09:18:37.439Z,4.00
2022-12-06T09:19:37.432Z,4.40
2022-12-06T09:20:37.538Z,4.50
2022-12-06T09:21:37.371Z,4.10
2022-12-06T09:22:37.438Z,4.20
2022-12-06T09:23:37.450Z,4.20
2022-12-06T09:24:37.393Z,3.80
2022-12-06T09:25:37.352Z,3.80
2022-12-06T09:26:37.372Z,4.30
2022-12-06T09:27:37.526Z,4.50
2022-12-06T09:28:37.381Z,3.80
2022-12-06T09:29:40.523Z,4.80
2022-12-06T09:30:37.278Z,4.20
2022-12-06T09:31:37.434Z,4.00
2022-12-06T09:32:37.298Z,4.00
2022-12-06T09:33:37.278Z,4.80
2022-12-06T09:34:37.284Z,4.00
2022-12-06T09:35:37.312Z,4.60
2022-12-06T09:36:37.306Z,4.20
2022-12-06T09:37:37.300Z,4.40
2022-12-06T09:38:37.210Z,4.10
2022-12-06T09:39:37.251Z,4.10
2022-12-06T09:40:42.533Z,4.90
2022-12-06T09:41:37.177Z,5.10
2022-12-06T09:42:37.170Z,4.40
2022-12-06T09:43:37.233Z,4.50
2022-12-06T09:44:37.179Z,4.60
2022-12-06T09:45:37.215Z,4.00
2022-12-06T09:46:37.362Z,3.50
2022-12-06T09:47:37.114Z,3.70
2022-12-06T09:48:37.213Z,4.40
2022-12-06T09:49:37.109Z,4.00
2022-12-06T09:50:37.297Z,3.50
2022-12-06T09:51:37.158Z,3.70
2022-12-06T09:52:37.175Z,3.20
2022-12-06T09:53:37.055Z,4.00
2022-12-06T09:54:37.144Z,3.30
2022-12-06T09:55:37.250Z,3.70
2022-12-06T09:56:37.069Z,3.90
2022-12-06T09:57:37.095Z,3.80
2022-12-06T09:58:37.066Z,3.80
2022-12-06T09:59:37.047Z,4.00
2022-12-06T10:00:37.015Z,4.00
2022-12-06T10:01:37.175Z,4.20
2022-12-06T10:02:37.071Z,4.50
2022-12-06T10:03:37.061Z,4.40
2022-12-06T10:04:37.054Z,3.80
2022-12-06T10:05:36.931Z,4.20
2022-12-06T10:06:36.934Z,3.90
2022-12-06T10:07:36.971Z,4.00
2022-12-06T10:08:37.139Z,4.30
2022-12-06T10:09:37.114Z,4.00
2022-12-06T10:10:36.900Z,4.20
2022-12-06T10:11:36.865Z,4.50
2022-12-06T10:12:36.890Z,4.30
2022-12-06T10:13:36.896Z,4.50
2022-12-06T10:14:36.888Z,4.40
2022-12-06T10:15:36.914Z,5.00
2022-12-06T10:16:36.955Z,4.80
2022-12-06T10:17:36.897Z,4.60
2022-12-06T10:18:36.805Z,4.50
2022-12-06T10:19:38.012Z,4.50
2022-12-06T10:20:36.792Z,4.60
2022-12-06T10:21:36.922Z,4.40
2022-12-06T10:22:36.871Z,4.00
2022-12-06T10:23:36.833Z,3.90
2022-12-06T10:24:36.816Z,3.60
2022-12-06T10:25:36.751Z,3.50
2022-12-06T10:26:36.859Z,4.20
2022-12-06T10:27:36.724Z,4.30
2022-12-06T10:28:36.790Z,3.50
2022-12-06T10:29:36.711Z,4.20
2022-12-06T10:30:36.672Z,4.10
2022-12-06T10:31:36.751Z,3.50
2022-12-06T10:32:36.704Z,3.90
2022-12-06T10:33:36.648Z,4.10
2022-12-06T10:34:36.661Z,4.30
2022-12-06T10:35:36.637Z,4.20
2022-12-06T10:36:36.630Z,4.70
2022-12-06T10:37:36.643Z,4.60
2022-12-06T10:38:36.598Z,5.10
2022-12-06T10:39:36.618Z,4.40
2022-12-06T10:40:36.560Z,3.90
2022-12-06T10:41:36.556Z,3.90
2022-12-06T10:42:36.548Z,4.00
2022-12-06T10:43:36.565Z,4.40
2022-12-06T10:44:36.565Z,4.20
2022-12-06T10:45:36.543Z,3.70
2022-12-06T10:46:36.548Z,3.70
2022-12-06T10:47:36.504Z,4.50
2022-12-06T10:48:36.524Z,4.20
2022-12-06T10:49:36.510Z,3.60
2022-12-06T10:50:36.490Z,4.00
2022-12-06T10:51:36.480Z,4.20
2022-12-06T10:52:36.460Z,3.50
2022-12-06T10:53:36.470Z,3.10
2022-12-06T10:54:36.439Z,4.00
2022-12-06T10:55:36.445Z,3.90
2022-12-06T10:56:36.458Z,4.30
2022-12-06T10:57:36.403Z,3.70
2022-12-06T10:58:36.403Z,3.50
2022-12-06T10:59:36.410Z,4.10
2022-12-06T11:00:36.451Z,4.70
2022-12-06T11:01:36.690Z,4.50
2022-12-06T11:02:36.401Z,4.40
2022-12-06T11:03:36.365Z,3.80
2022-12-06T11:04:36.375Z,3.90
2022-12-06T11:05:36.331Z,4.10
2022-12-06T11:06:36.384Z,3.90
2022-12-06T11:07:36.483Z,4.40
2022-12-06T11:08:36.347Z,4.40
2022-12-06T11:09:36.408Z,3.90
2022-12-06T11:10:36.592Z,4.70
2022-12-06T11:11:36.601Z,4.10
2022-12-06T11:12:36.296Z,4.60
2022-12-06T11:13:36.397Z,4.90
2022-12-06T11:14:36.309Z,3.80
2022-12-06T11:15:36.265Z,4.30
2022-12-06T11:16:36.396Z,3.70
2022-12-06T11:17:36.437Z,5.00
2022-12-06T11:18:36.318Z,5.00
2022-12-06T11:19:36.238Z,5.80
2022-12-06T11:20:36.202Z,4.40
2022-12-06T11:21:36.341Z,4.80
2022-12-06T11:22:36.239Z,4.70
2022-12-06T11:23:36.201Z,4.40
2022-12-06T11:24:36.176Z,3.40
2022-12-06T11:25:36.215Z,3.90
2022-12-06T11:26:36.206Z,3.40
2022-12-06T11:27:36.280Z,3.90
2022-12-06T11:28:36.269Z,4.20
2022-12-06T11:29:36.129Z,4.30
2022-12-06T11:30:36.224Z,4.10
2022-12-06T11:31:36.213Z,4.00
2022-12-06T11:32:36.152Z,4.10
2022-12-06T11:33:36.096Z,3.90
2022-12-06T11:34:36.180Z,3.50
2022-12-06T11:35:36.126Z,3.80
2022-12-06T11:36:36.112Z,3.40
2022-12-06T11:37:40.103Z,3.00
2022-12-06T11:38:36.203Z,3.50
2022-12-06T11:39:36.209Z,3.80
2022-12-06T11:40:36.112Z,3.90
2022-12-06T11:41:36.195Z,3.60
2022-12-06T11:42:36.123Z,3.90
2022-12-06T11:43:36.150Z,4.00
2022-12-06T11:44:36.108Z,3.50
2022-12-06T11:45:35.978Z,4.20
2022-12-06T11:46:36.048Z,3.50
2022-12-06T11:47:36.131Z,3.60
2022-12-06T11:48:36.209Z,3.60
2022-12-06T11:49:36.098Z,3.60
2022-12-06T11:50:36.019Z,3.20
2022-12-06T11:51:35.968Z,4.00
2022-12-06T11:52:36.088Z,3.90
2022-12-06T11:53:35.964Z,5.50
2022-12-06T11:54:36.009Z,4.50
2022-12-06T11:55:35.959Z,4.70
2022-12-06T11:56:35.919Z,4.70
2022-12-06T11:57:35.906Z,5.60
2022-12-06T11:58:35.968Z,4.00
2022-12-06T11:59:36.294Z,3.80
2022-12-06T12:00:35.916Z,4.70
2022-12-06T12:01:35.956Z,4.50
2022-12-06T12:02:35.875Z,6.20
2022-12-06T12:03:35.982Z,4.90
2022-12-06T12:04:35.889Z,4.40
2022-12-06T12:05:35.808Z,4.50
2022-12-06T12:06:35.822Z,4.50
2022-12-06T12:07:35.883Z,4.20
2022-12-06T12:08:36.023Z,4.00
2022-12-06T12:09:35.795Z,4.80
2022-12-06T12:10:36.111Z,4.70
2022-12-06T12:11:35.732Z,5.50
2022-12-06T12:12:35.813Z,4.20
2022-12-06T12:13:35.776Z,4.80
2022-12-06T12:14:35.761Z,4.30
2022-12-06T12:15:35.759Z,5.50
2022-12-06T12:16:35.826Z,5.10
2022-12-06T12:17:35.739Z,5.00
2022-12-06T12:18:35.752Z,4.50
2022-12-06T12:19:35.768Z,4.90
2022-12-06T12:20:35.698Z,4.30
2022-12-06T12:21:35.772Z,5.10
2022-12-06T12:22:36.032Z,4.70
2022-12-06T12:23:35.680Z,4.70
2022-12-06T12:24:45.071Z,3.60
2022-12-06T12:25:35.734Z,4.10
2022-12-06T12:26:35.698Z,3.70
2022-12-06T12:27:35.567Z,3.90
2022-12-06T12:28:35.661Z,4.50
2022-12-06T12:29:35.828Z,3.70
2022-12-06T12:30:35.641Z,4.50
2022-12-06T12:31:35.703Z,4.40
2022-12-06T12:32:35.650Z,4.70
2022-12-06T12:33:35.590Z,4.70
2022-12-06T12:34:40.123Z,3.90
2022-12-06T12:35:35.781Z,4.20
2022-12-06T12:36:35.505Z,4.00
2022-12-06T12:37:35.566Z,4.50
2022-12-06T12:38:35.462Z,4.30
2022-12-06T12:39:35.527Z,3.90
2022-12-06T12:40:35.509Z,4.40
2022-12-06T12:41:35.496Z,3.50
2022-12-06T12:42:35.414Z,4.10
2022-12-06T12:43:35.404Z,3.80
2022-12-06T12:44:38.437Z,4.30
2022-12-06T12:45:35.423Z,3.80
2022-12-06T12:46:35.566Z,3.50
2022-12-06T12:47:35.373Z,4.30
2022-12-06T12:48:35.396Z,3.70
2022-12-06T12:49:35.345Z,3.00
2022-12-06T12:50:35.359Z,4.20
2022-12-06T12:51:35.340Z,3.90
2022-12-06T12:52:35.313Z,3.50
2022-12-06T12:53:35.323Z,3.30
2022-12-06T12:54:35.299Z,3.10
2022-12-06T12:55:35.296Z,3.10
2022-12-06T12:56:35.343Z,3.80
2022-12-06T12:57:35.306Z,3.60
2022-12-06T12:58:36.341Z,3.50
2022-12-06T12:59:35.363Z,3.90
2022-12-06T13:00:35.268Z,3.80
2022-12-06T13:01:35.347Z,3.60
2022-12-06T13:02:35.287Z,3.60
2022-12-06T13:03:50.856Z,3.40
2022-12-06T13:04:35.203Z,3.30
2022-12-06T13:05:36.213Z,3.20
2022-12-06T13:06:35.189Z,4.40
2022-12-06T13:07:35.207Z,3.30
2022-12-06T13:08:35.171Z,4.40
2022-12-06T13:09:35.162Z,4.40
2022-12-06T13:10:35.141Z,4.60
2022-12-06T13:11:35.132Z,3.70
2022-12-06T13:12:35.181Z,4.90
2022-12-06T13:13:35.113Z,4.20
2022-12-06T13:14:35.132Z,3.80
2022-12-06T13:15:35.179Z,4.10
2022-12-06T13:16:35.240Z,4.10
2022-12-06T13:17:35.088Z,3.60
2022-12-06T13:18:35.070Z,3.70
2022-12-06T13:19:35.092Z,3.70
2022-12-06T13:20:35.048Z,3.50
2022-12-06T13:21:35.044Z,4.30